createdAt,value
2022-08-07T00:02:40.797Z,86.05
2022-08-07T00:04:58.788Z,85.46
2022-08-07T00:07:27.414Z,85.31
2022-08-07T00:10:18.763Z,84.97
2022-08-07T00:13:00.075Z,85.04
2022-08-07T00:15:38.123Z,84.69
2022-08-07T00:18:20.126Z,84.91
2022-08-07T00:20:51.953Z,85.13
2022-08-07T00:23:21.619Z,85.00
2022-08-07T00:26:01.542Z,84.96
2022-08-07T00:28:34.373Z,84.80
2022-08-07T00:31:06.099Z,84.85
2022-08-07T00:33:36.595Z,84.59
2022-08-07T00:36:07.842Z,84.43
2022-08-07T00:38:39.138Z,84.16
2022-08-07T00:41:10.104Z,84.00
2022-08-07T00:44:01.617Z,83.84
2022-08-07T00:46:32.879Z,83.56
2022-08-07T00:49:04.999Z,83.56
2022-08-07T00:51:56.730Z,83.24
2022-08-07T00:54:23.129Z,83.02
2022-08-07T00:56:51.823Z,82.61
2022-08-07T00:59:35.884Z,82.63
2022-08-07T01:02:13.942Z,82.29
2022-08-07T01:04:48.684Z,82.10
2022-08-07T01:07:18.453Z,82.04
2022-08-07T01:10:06.620Z,82.17
2022-08-07T01:12:36.435Z,82.21
2022-08-07T01:15:16.894Z,81.86
2022-08-07T01:17:45.892Z,81.81
2022-08-07T01:20:17.485Z,81.41
2022-08-07T01:23:00.618Z,81.33
2022-08-07T01:25:54.642Z,81.04
2022-08-07T01:28:24.823Z,80.79
2022-08-07T01:30:55.716Z,81.00
2022-08-07T01:33:30.165Z,80.82
2022-08-07T01:36:16.796Z,80.75
2022-08-07T01:38:45.593Z,80.58
2022-08-07T01:41:26.195Z,80.03
2022-08-07T01:43:56.087Z,79.45
2022-08-07T01:46:24.328Z,79.17
2022-08-07T01:48:53.720Z,79.21
2022-08-07T01:52:03.211Z,79.23
2022-08-07T01:54:32.699Z,79.35
2022-08-07T01:57:24.212Z,79.26
2022-08-07T02:00:03.485Z,79.94
2022-08-07T02:03:18.524Z,79.45
2022-08-07T02:05:59.655Z,79.54
2022-08-07T02:08:32.881Z,78.92
2022-08-07T02:11:04.464Z,78.94
2022-08-07T02:14:00.695Z,78.30
2022-08-07T02:16:33.297Z,78.27
2022-08-07T02:20:07.835Z,77.84
2022-08-07T02:21:58.635Z,77.48
2022-08-07T02:24:29.904Z,77.21
2022-08-07T02:27:02.494Z,76.94
2022-08-07T02:29:34.506Z,77.13
2022-08-07T02:32:13.288Z,76.67
2022-08-07T02:34:48.756Z,76.12
2022-08-07T02:37:18.655Z,76.26
2022-08-07T02:40:02.256Z,75.96
2022-08-07T02:42:40.303Z,75.58
2022-08-07T02:45:58.827Z,74.83
2022-08-07T02:48:02.040Z,74.28
2022-08-07T02:50:30.852Z,73.74
2022-08-07T02:53:15.962Z,73.27
2022-08-07T02:56:03.220Z,72.92
2022-08-07T02:58:35.561Z,72.87
2022-08-07T03:01:05.233Z,72.51
2022-08-07T03:03:50.581Z,72.88
2022-08-07T03:06:25.910Z,72.61
2022-08-07T03:09:11.160Z,72.16
2022-08-07T03:12:22.027Z,72.19
2022-08-07T03:15:02.561Z,71.78
2022-08-07T03:17:52.814Z,71.94
2022-08-07T03:20:21.594Z,71.83
2022-08-07T03:22:51.431Z,71.22
2022-08-07T03:25:21.414Z,71.09
2022-08-07T03:28:37.648Z,70.96
2022-08-07T03:31:24.737Z,70.81
2022-08-07T03:34:10.566Z,69.49
2022-08-07T03:36:57.309Z,68.92
2022-08-07T03:39:59.803Z,68.64
2022-08-07T03:42:18.812Z,68.42
2022-08-07T03:44:53.618Z,68.83
2022-08-07T03:47:29.543Z,68.55
2022-08-07T03:50:22.863Z,67.54
2022-08-07T03:52:53.533Z,67.22
2022-08-07T03:55:23.159Z,67.22
2022-08-07T03:59:05.400Z,66.67
2022-08-07T04:00:46.325Z,66.33
2022-08-07T04:03:23.193Z,66.22
2022-08-07T04:05:51.799Z,65.27
2022-08-07T04:08:27.946Z,64.36
2022-08-07T04:12:24.666Z,64.22
2022-08-07T04:14:10.207Z,64.37
2022-08-07T04:16:40.396Z,63.96
2022-08-07T04:19:51.115Z,63.74
2022-08-07T04:23:19.237Z,63.76
2022-08-07T04:25:53.582Z,63.18
2022-08-07T04:28:38.265Z,63.20
2022-08-07T04:31:38.496Z,63.76
2022-08-07T04:34:16.397Z,63.26
2022-08-07T04:36:48.736Z,63.00
2022-08-07T04:39:20.022Z,63.45
2022-08-07T04:41:54.092Z,63.00
2022-08-07T04:44:22.398Z,62.58
2022-08-07T04:47:04.612Z,62.72
2022-08-07T04:50:11.009Z,62.14
2022-08-07T04:53:39.980Z,61.13
2022-08-07T04:58:16.216Z,59.94
2022-08-07T05:00:09.477Z,60.03
2022-08-07T05:02:45.597Z,58.68
2022-08-07T05:05:53.436Z,57.02
2022-08-07T05:08:59.482Z,56.60
2022-08-07T05:12:02.354Z,56.34
2022-08-07T05:15:23.411Z,56.19
2022-08-07T05:18:01.548Z,55.55
2022-08-07T05:20:41.085Z,54.67
2022-08-07T05:23:36.526Z,54.89
2022-08-07T05:26:15.259Z,54.58
2022-08-07T05:28:59.750Z,53.84
2022-08-07T05:31:37.933Z,53.19
2022-08-07T05:34:12.986Z,52.83
2022-08-07T05:36:52.926Z,52.98
2022-08-07T05:40:18.143Z,52.88
2022-08-07T05:42:15.824Z,53.48
2022-08-07T05:45:14.385Z,52.71
2022-08-07T05:48:03.884Z,52.16
2022-08-07T05:50:35.692Z,52.86
2022-08-07T05:53:07.884Z,53.55
2022-08-07T05:56:03.735Z,53.86
2022-08-07T05:58:37.396Z,53.52
2022-08-07T06:01:10.993Z,52.98
2022-08-07T06:03:53.482Z,53.72
2022-08-07T06:06:29.989Z,54.34
2022-08-07T06:09:11.127Z,54.74
2022-08-07T06:11:41.055Z,54.69
2022-08-07T06:14:20.994Z,54.61
2022-08-07T06:17:01.261Z,54.41
2022-08-07T06:19:51.905Z,54.40
2022-08-07T06:22:27.386Z,54.18
2022-08-07T06:25:01.138Z,54.11
2022-08-07T06:28:00.583Z,54.53
2022-08-07T06:30:32.279Z,54.21
2022-08-07T06:33:09.930Z,53.25
2022-08-07T06:36:06.372Z,52.91
2022-08-07T06:38:35.365Z,53.25
2022-08-07T06:41:09.752Z,53.22
2022-08-07T06:43:46.162Z,53.11
2022-08-07T06:46:16.981Z,53.39
2022-08-07T06:48:59.805Z,53.42
2022-08-07T06:51:35.167Z,53.68
2022-08-07T06:55:33.714Z,54.10
2022-08-07T06:57:10.149Z,54.41
2022-08-07T07:00:14.271Z,54.31
2022-08-07T07:02:54.371Z,54.67
2022-08-07T07:06:03.615Z,54.63
2022-08-07T07:08:18.583Z,54.52
2022-08-07T07:11:14.525Z,54.19
2022-08-07T07:14:03.057Z,54.47
2022-08-07T07:16:45.102Z,54.49
2022-08-07T07:22:36.673Z,55.20
2022-08-07T07:26:32.038Z,55.05
2022-08-07T07:28:29.629Z,54.04
2022-08-07T07:31:08.947Z,53.16
2022-08-07T07:33:39.208Z,52.60
2022-08-07T07:36:32.298Z,51.81
2022-08-07T07:39:05.685Z,51.85
2022-08-07T07:41:50.797Z,51.84
2022-08-07T07:44:25.796Z,52.06
2022-08-07T07:47:01.246Z,52.22
2022-08-07T07:50:35.101Z,52.27
2022-08-07T07:52:33.112Z,51.55
2022-08-07T07:55:03.560Z,51.92
2022-08-07T07:57:52.402Z,51.76
2022-08-07T08:00:29.714Z,51.11
2022-08-07T08:03:16.560Z,51.08
2022-08-07T08:06:00.381Z,50.99
2022-08-07T08:08:36.876Z,51.18
2022-08-07T08:11:16.457Z,51.37
2022-08-07T08:13:55.382Z,51.20
2022-08-07T08:18:36.936Z,50.88
2022-08-07T08:20:17.830Z,51.17
2022-08-07T08:22:54.384Z,50.78
2022-08-07T08:25:49.296Z,50.34
2022-08-07T08:28:38.314Z,49.84
2022-08-07T08:31:58.696Z,49.92
2022-08-07T08:34:26.703Z,50.44
2022-08-07T08:36:59.167Z,51.25
2022-08-07T08:39:39.425Z,51.60
2022-08-07T08:42:40.403Z,51.71
2022-08-07T08:45:13.279Z,52.15
2022-08-07T08:47:55.009Z,52.49
2022-08-07T08:50:45.730Z,52.22
2022-08-07T08:53:31.125Z,52.84
2022-08-07T08:56:05.715Z,52.82
2022-08-07T08:59:13.715Z,52.11
2022-08-07T09:01:51.166Z,51.77
2022-08-07T09:04:44.208Z,51.60
2022-08-07T09:07:58.228Z,51.64
2022-08-07T09:10:34.905Z,51.24
2022-08-07T09:13:07.707Z,51.60
2022-08-07T09:16:22.377Z,51.13
2022-08-07T09:19:07.293Z,50.87
2022-08-07T09:24:28.113Z,51.42
2022-08-07T09:25:17.269Z,51.60
2022-08-07T09:30:01.672Z,50.72
2022-08-07T09:31:49.533Z,51.32
2022-08-07T09:34:38.126Z,51.49
2022-08-07T09:37:47.812Z,51.41
2022-08-07T09:40:55.027Z,51.31
2022-08-07T09:44:03.211Z,51.43
2022-08-07T09:47:52.329Z,51.76
2022-08-07T09:50:01.161Z,52.18
2022-08-07T09:52:51.899Z,52.25
2022-08-07T09:56:03.341Z,51.37
2022-08-07T09:59:14.592Z,51.96
2022-08-07T10:01:58.495Z,51.88
2022-08-07T10:04:59.515Z,52.04
2022-08-07T10:07:58.914Z,51.78
2022-08-07T10:11:16.666Z,51.32
2022-08-07T10:14:01.959Z,50.49
2022-08-07T10:16:50.854Z,50.56
2022-08-07T10:19:49.138Z,51.41
2022-08-07T10:22:56.083Z,51.92
2022-08-07T10:25:52.909Z,52.05
2022-08-07T10:28:27.275Z,51.47
2022-08-07T10:34:06.199Z,50.65
2022-08-07T10:37:15.394Z,51.75
2022-08-07T10:40:09.158Z,51.91
2022-08-07T10:42:39.371Z,52.16
2022-08-07T10:45:19.438Z,52.78
2022-08-07T10:48:35.471Z,53.80
2022-08-07T10:51:39.740Z,53.96
2022-08-07T10:54:22.807Z,54.02
2022-08-07T10:57:15.593Z,55.32
2022-08-07T11:00:36.975Z,55.12
2022-08-07T11:03:13.519Z,55.25
2022-08-07T11:06:22.130Z,54.88
2022-08-07T11:09:00.958Z,54.68
2022-08-07T11:11:59.215Z,54.41
2022-08-07T11:14:59.942Z,54.53
2022-08-07T11:17:45.756Z,54.70
2022-08-07T11:20:43.178Z,55.13
2022-08-07T11:23:48.288Z,54.97
2022-08-07T11:26:28.972Z,55.13
2022-08-07T11:29:42.082Z,55.56
2022-08-07T11:32:25.238Z,56.08
2022-08-07T11:35:13.283Z,56.77
2022-08-07T11:38:12.524Z,56.36
2022-08-07T11:41:02.219Z,55.95
2022-08-07T11:44:11.104Z,55.84
2022-08-07T11:47:10.562Z,55.85
2022-08-07T11:50:31.095Z,55.58
2022-08-07T11:53:36.958Z,55.85
2022-08-07T11:56:26.718Z,56.04
2022-08-07T12:00:08.127Z,56.42
2022-08-07T12:02:34.473Z,56.96
2022-08-07T12:05:28.269Z,57.44
2022-08-07T12:08:31.403Z,58.32
2022-08-07T12:11:20.054Z,58.44
2022-08-07T12:13:57.727Z,58.98
2022-08-07T12:16:36.306Z,59.30
2022-08-07T12:19:21.617Z,59.95
2022-08-07T12:22:38.055Z,60.28
2022-08-07T12:26:00.343Z,60.57
2022-08-07T12:28:09.414Z,60.74
2022-08-07T12:30:46.912Z,61.02
2022-08-07T12:33:30.787Z,61.66
2022-08-07T12:36:13.620Z,62.36
2022-08-07T12:38:47.414Z,63.05
2022-08-07T12:41:46.251Z,63.97
2022-08-07T12:44:22.106Z,64.75
2022-08-07T12:47:21.416Z,65.47
2022-08-07T12:50:38.954Z,66.33
2022-08-07T12:53:17.371Z,66.55
2022-08-07T12:56:18.558Z,67.05
2022-08-07T12:58:57.240Z,67.01
2022-08-07T13:01:32.777Z,67.43
2022-08-07T13:04:34.469Z,67.83
2022-08-07T13:07:17.934Z,67.68
2022-08-07T13:10:39.515Z,68.42
2022-08-07T13:13:47.994Z,68.35
2022-08-07T13:16:38.609Z,68.75
2022-08-07T13:19:34.876Z,68.88
2022-08-07T13:22:27.501Z,68.94
2022-08-07T13:25:00.114Z,69.08
2022-08-07T13:28:10.882Z,68.97
2022-08-07T13:30:53.299Z,69.38
2022-08-07T13:34:33.314Z,69.35
2022-08-07T13:36:39.689Z,69.60
2022-08-07T13:39:28.625Z,69.44
2022-08-07T13:42:11.014Z,69.46
2022-08-07T13:44:43.077Z,69.68
2022-08-07T13:48:06.034Z,70.31
2022-08-07T13:50:35.519Z,70.33
2022-08-07T13:53:23.597Z,70.69
2022-08-07T13:55:54.637Z,70.89
2022-08-07T13:58:56.163Z,71.13
2022-08-07T14:01:29.747Z,71.79
2022-08-07T14:04:12.012Z,72.00
2022-08-07T14:06:47.622Z,72.37
2022-08-07T14:10:02.136Z,72.78
2022-08-07T14:12:30.342Z,73.22
2022-08-07T14:15:08.426Z,73.25
2022-08-07T14:18:24.081Z,73.23
2022-08-07T14:20:40.260Z,73.60
2022-08-07T14:23:59.098Z,73.72
2022-08-07T14:26:28.132Z,73.74
2022-08-07T14:29:05.921Z,73.94
2022-08-07T14:31:57.700Z,73.92
2022-08-07T14:35:04.239Z,74.34
2022-08-07T14:37:39.317Z,74.09
2022-08-07T14:43:57.180Z,74.48
2022-08-07T14:46:32.452Z,74.68
2022-08-07T14:49:17.480Z,74.69
2022-08-07T14:52:03.946Z,74.87
2022-08-07T14:54:42.940Z,75.04
2022-08-07T14:57:24.874Z,75.39
2022-08-07T15:02:56.845Z,76.08
2022-08-07T15:05:27.297Z,76.23
2022-08-07T15:08:00.397Z,76.22
2022-08-07T15:10:30.546Z,76.27
2022-08-07T15:13:06.081Z,76.29
2022-08-07T15:15:43.598Z,76.26
2022-08-07T15:18:35.870Z,76.34
2022-08-07T15:21:43.895Z,76.49
2022-08-07T15:25:13.967Z,76.57
2022-08-07T15:27:12.808Z,76.46
2022-08-07T15:30:04.879Z,76.50
2022-08-07T15:32:50.875Z,76.74
2022-08-07T15:36:00.575Z,76.71
2022-08-07T15:38:51.772Z,76.82
2022-08-07T15:42:42.296Z,76.64
2022-08-07T15:44:18.225Z,76.77
2022-08-07T15:46:56.554Z,77.01
2022-08-07T15:50:04.377Z,77.25
2022-08-07T15:52:29.641Z,77.30
2022-08-07T15:55:08.914Z,77.04
2022-08-07T15:57:48.444Z,77.29
2022-08-07T16:00:31.449Z,77.21
2022-08-07T16:03:46.327Z,77.64
2022-08-07T16:06:11.528Z,77.54
2022-08-07T16:08:45.473Z,77.84
2022-08-07T16:11:51.892Z,77.67
2022-08-07T16:14:54.558Z,77.90
2022-08-07T16:18:04.028Z,77.92
2022-08-07T16:20:55.156Z,77.70
2022-08-07T16:24:33.661Z,77.87
2022-08-07T16:27:18.967Z,77.84
2022-08-07T16:30:30.511Z,77.96
2022-08-07T16:34:03.256Z,77.95
2022-08-07T16:37:02.410Z,77.79
2022-08-07T16:39:56.017Z,77.80
2022-08-07T16:42:32.490Z,77.76
2022-08-07T16:46:47.284Z,77.86
2022-08-07T16:48:30.049Z,78.17
2022-08-07T16:54:22.497Z,78.07
2022-08-07T16:58:02.553Z,77.98
2022-08-07T17:00:29.867Z,78.24
2022-08-07T17:03:17.862Z,78.08
2022-08-07T17:06:28.212Z,78.25
2022-08-07T17:09:54.818Z,78.54
2022-08-07T17:12:52.889Z,78.85
2022-08-07T17:15:43.642Z,78.21
2022-08-07T17:18:30.286Z,78.77
2022-08-07T17:20:58.906Z,79.00
2022-08-07T17:23:32.216Z,79.35
2022-08-07T17:26:35.849Z,79.33
2022-08-07T17:30:15.026Z,79.57
2022-08-07T17:32:30.771Z,79.65
2022-08-07T17:35:50.342Z,79.68
2022-08-07T17:38:33.637Z,79.43
2022-08-07T17:42:04.863Z,79.93
2022-08-07T17:44:46.931Z,80.04
2022-08-07T17:47:41.783Z,80.34
2022-08-07T17:50:42.547Z,80.52
2022-08-07T17:54:00.673Z,80.60
2022-08-07T17:56:49.435Z,80.54
2022-08-07T17:59:43.331Z,80.54
2022-08-07T18:02:33.519Z,80.74
2022-08-07T18:05:20.677Z,80.66
2022-08-07T18:09:01.426Z,81.10
2022-08-07T18:12:07.518Z,80.64
2022-08-07T18:15:01.803Z,80.76
2022-08-07T18:18:45.694Z,80.26
2022-08-07T18:21:37.337Z,80.06
2022-08-07T18:24:40.389Z,79.91
2022-08-07T18:27:46.268Z,79.87
2022-08-07T18:30:32.401Z,79.61
2022-08-07T18:33:32.060Z,80.10
2022-08-07T18:36:33.136Z,80.30
2022-08-07T18:40:06.631Z,80.12
2022-08-07T18:42:28.748Z,79.74
2022-08-07T18:45:39.881Z,80.50
2022-08-07T18:50:05.729Z,80.45
2022-08-07T18:52:34.806Z,80.37
2022-08-07T18:54:50.832Z,80.18
2022-08-07T18:57:36.965Z,80.42
2022-08-07T19:00:33.046Z,80.50
2022-08-07T19:03:12.489Z,80.97
2022-08-07T19:06:16.394Z,80.73
2022-08-07T19:08:56.769Z,80.64
2022-08-07T19:12:06.357Z,80.54
2022-08-07T19:14:51.318Z,80.74
2022-08-07T19:18:01.190Z,80.15
2022-08-07T19:21:09.603Z,80.44
2022-08-07T19:23:57.963Z,81.05
2022-08-07T19:26:53.484Z,81.13
2022-08-07T19:31:03.675Z,81.13
2022-08-07T19:32:28.912Z,81.04
2022-08-07T19:35:03.904Z,81.21
2022-08-07T19:37:56.221Z,80.76
2022-08-07T19:40:30.898Z,80.55
2022-08-07T19:43:02.328Z,81.08
2022-08-07T19:46:05.795Z,80.95
2022-08-07T19:48:42.646Z,81.11
2022-08-07T19:51:19.359Z,81.60
2022-08-07T19:54:32.105Z,81.74
2022-08-07T19:57:51.866Z,81.71
2022-08-07T19:59:43.787Z,81.99
2022-08-07T20:02:29.464Z,82.24
2022-08-07T20:05:01.582Z,82.20
2022-08-07T20:07:46.266Z,82.42
2022-08-07T20:10:37.205Z,82.53
2022-08-07T20:13:23.539Z,82.66
2022-08-07T20:15:58.086Z,82.99
2022-08-07T20:18:32.697Z,83.10
2022-08-07T20:21:14.807Z,83.29
2022-08-07T20:24:04.986Z,83.27
2022-08-07T20:26:45.134Z,83.33
2022-08-07T20:29:49.347Z,82.78
2022-08-07T20:32:25.197Z,82.76
2022-08-07T20:35:00.172Z,82.80
2022-08-07T20:37:46.722Z,83.04
2022-08-07T20:40:33.480Z,82.97
2022-08-07T20:43:14.679Z,82.28
2022-08-07T20:46:26.875Z,82.07
2022-08-07T20:48:58.144Z,82.01
2022-08-07T20:51:40.271Z,81.88
2022-08-07T20:54:15.172Z,82.02
2022-08-07T20:57:05.230Z,82.04
2022-08-07T21:00:08.219Z,82.00
2022-08-07T21:02:54.508Z,82.01
2022-08-07T21:05:56.234Z,81.99
2022-08-07T21:08:44.172Z,82.00
2022-08-07T21:11:22.027Z,81.77
2022-08-07T21:14:31.703Z,82.14
2022-08-07T21:18:00.412Z,82.04
2022-08-07T21:20:04.787Z,82.57
2022-08-07T21:22:51.406Z,82.57
2022-08-07T21:25:39.044Z,82.31
2022-08-07T21:28:16.758Z,82.75
2022-08-07T21:31:17.705Z,82.81
2022-08-07T21:34:16.390Z,82.85
2022-08-07T21:37:00.439Z,82.81
2022-08-07T21:39:45.271Z,82.92
2022-08-07T21:42:55.534Z,82.80
2022-08-07T21:46:10.108Z,82.62
2022-08-07T21:48:57.490Z,82.80
2022-08-07T21:51:32.058Z,82.80
2022-08-07T21:54:39.103Z,82.58
2022-08-07T21:58:30.575Z,82.81
2022-08-07T22:01:13.927Z,82.58
2022-08-07T22:04:13.323Z,83.10
2022-08-07T22:07:14.043Z,82.83
2022-08-07T22:09:53.838Z,82.85
2022-08-07T22:12:24.526Z,82.54
2022-08-07T22:15:00.632Z,82.83
2022-08-07T22:17:37.788Z,83.01
2022-08-07T22:20:22.996Z,83.11
2022-08-07T22:23:01.780Z,83.57
2022-08-07T22:25:42.604Z,83.47
2022-08-07T22:28:53.129Z,83.89
2022-08-07T22:32:00.390Z,83.65
2022-08-07T22:34:54.627Z,83.86
2022-08-07T22:38:04.284Z,83.93
2022-08-07T22:40:34.719Z,83.54
2022-08-07T22:43:16.609Z,83.86
2022-08-07T22:46:21.583Z,83.76
2022-08-07T22:49:20.693Z,83.99
2022-08-07T22:52:37.499Z,83.67
2022-08-07T22:55:22.733Z,83.56
2022-08-07T22:58:27.718Z,83.88
2022-08-07T23:01:42.116Z,84.05
2022-08-07T23:04:56.724Z,83.63
2022-08-07T23:08:07.119Z,83.22
2022-08-07T23:11:35.208Z,83.64
2022-08-07T23:14:53.391Z,83.79
2022-08-07T23:17:57.478Z,84.12
2022-08-07T23:20:52.675Z,83.73
2022-08-07T23:24:06.888Z,84.08
2022-08-07T23:27:07.692Z,83.97
2022-08-07T23:30:37.395Z,83.74
2022-08-07T23:34:34.161Z,83.69
2022-08-07T23:36:28.829Z,83.98
2022-08-07T23:39:13.355Z,83.60
2022-08-07T23:42:04.236Z,83.57
2022-08-07T23:45:33.225Z,83.70
2022-08-07T23:48:29.068Z,83.51
2022-08-07T23:53:00.046Z,83.52
2022-08-07T23:54:46.583Z,83.55
2022-08-07T23:57:50.284Z,83.59
